createdAt,value
2022-10-02T00:02:44.180Z,96413.66
2022-10-02T00:05:14.727Z,96419.66
2022-10-02T00:07:48.220Z,96414.84
2022-10-02T00:10:41.702Z,96418.84
2022-10-02T00:13:14.549Z,96426.34
2022-10-02T00:15:43.307Z,96433.69
2022-10-02T00:18:17.833Z,96432.72
2022-10-02T00:21:05.560Z,96433.31
2022-10-02T00:23:41.513Z,96421.53
2022-10-02T00:26:26.871Z,96430.31
2022-10-02T00:29:24.470Z,96441.47
2022-10-02T00:32:21.073Z,96448.56
2022-10-02T00:35:24.335Z,96445.06
2022-10-02T00:38:12.806Z,96453.44
2022-10-02T00:41:14.004Z,96448.78
2022-10-02T00:44:14.919Z,96458.66
2022-10-02T00:46:50.386Z,96462.41
2022-10-02T00:49:25.737Z,96456.66
2022-10-02T00:52:16.654Z,96454.66
2022-10-02T00:55:17.130Z,96455.25
2022-10-02T00:57:52.616Z,96445.78
2022-10-02T01:00:20.007Z,96444.69
2022-10-02T01:02:59.358Z,96452.25
2022-10-02T01:05:27.409Z,96444.28
2022-10-02T01:07:55.898Z,96462.22
2022-10-02T01:10:25.680Z,96459.25
2022-10-02T01:12:54.236Z,96469.59
2022-10-02T01:15:30.996Z,96459.84
2022-10-02T01:17:58.586Z,96474.00
2022-10-02T01:20:37.758Z,96485.56
2022-10-02T01:23:48.930Z,96491.66
2022-10-02T01:26:16.206Z,96486.66
2022-10-02T01:28:42.869Z,96479.69
2022-10-02T01:31:14.663Z,96493.75
2022-10-02T01:33:43.147Z,96493.75
2022-10-02T01:36:11.616Z,96486.75
2022-10-02T01:38:39.858Z,96478.19
2022-10-02T01:41:08.090Z,96486.97
2022-10-02T01:43:38.063Z,96485.47
2022-10-02T01:46:21.132Z,96488.06
2022-10-02T01:49:05.838Z,96486.97
2022-10-02T01:51:55.062Z,96496.03
2022-10-02T01:54:33.349Z,96488.25
2022-10-02T01:57:23.857Z,96492.03
2022-10-02T02:00:11.237Z,96492.34
2022-10-02T02:03:08.422Z,96492.34
2022-10-02T02:05:55.262Z,96495.69
2022-10-02T02:08:26.991Z,96503.47
2022-10-02T02:11:02.288Z,96506.78
2022-10-02T02:13:38.304Z,96511.63
2022-10-02T02:16:32.687Z,96520.00
2022-10-02T02:19:13.554Z,96532.16
2022-10-02T02:21:48.939Z,96528.00
2022-10-02T02:24:41.260Z,96526.44
2022-10-02T02:27:13.724Z,96525.19
2022-10-02T02:29:42.251Z,96523.97
2022-10-02T02:32:13.544Z,96533.69
2022-10-02T02:34:48.059Z,96533.06
2022-10-02T02:37:19.955Z,96532.78
2022-10-02T02:40:01.636Z,96542.00
2022-10-02T02:42:32.371Z,96538.66
2022-10-02T02:45:17.575Z,96540.34
2022-10-02T02:47:56.601Z,96530.00
2022-10-02T02:50:44.928Z,96528.75
2022-10-02T02:53:11.460Z,96541.13
2022-10-02T02:55:45.132Z,96544.34
2022-10-02T02:58:20.675Z,96542.16
2022-10-02T03:00:47.361Z,96544.56
2022-10-02T03:03:14.087Z,96558.50
2022-10-02T03:05:46.582Z,96562.44
2022-10-02T03:08:22.328Z,96558.28
2022-10-02T03:11:22.102Z,96559.22
2022-10-02T03:14:19.492Z,96548.47
2022-10-02T03:17:12.298Z,96558.25
2022-10-02T03:20:01.368Z,96555.69
2022-10-02T03:22:46.966Z,96559.47
2022-10-02T03:25:23.437Z,96572.09
2022-10-02T03:28:01.826Z,96562.56
2022-10-02T03:30:29.696Z,96576.50
2022-10-02T03:33:00.983Z,96570.22
2022-10-02T03:35:29.207Z,96564.41
2022-10-02T03:38:05.112Z,96560.63
2022-10-02T03:40:31.815Z,96556.13
2022-10-02T03:42:58.569Z,96557.22
2022-10-02T03:45:49.387Z,96546.91
2022-10-02T03:48:12.914Z,96551.75
2022-10-02T03:50:39.549Z,96558.53
2022-10-02T03:53:35.582Z,96546.38
2022-10-02T03:56:08.104Z,96544.31
2022-10-02T03:58:37.913Z,96548.41
2022-10-02T04:01:18.837Z,96532.63
2022-10-02T04:04:01.907Z,96543.63
2022-10-02T04:06:51.801Z,96545.19
2022-10-02T04:09:26.067Z,96547.53
2022-10-02T04:12:00.868Z,96546.47
2022-10-02T04:14:37.130Z,96541.63
2022-10-02T04:17:44.903Z,96524.09
2022-10-02T04:20:31.095Z,96515.91
2022-10-02T04:23:06.746Z,96519.75
2022-10-02T04:25:42.683Z,96519.28
2022-10-02T04:28:15.426Z,96511.53
2022-10-02T04:30:42.062Z,96509.81
2022-10-02T04:33:15.447Z,96516.28
2022-10-02T04:36:08.381Z,96531.50
2022-10-02T04:39:07.449Z,96517.31
2022-10-02T04:42:04.662Z,96524.38
2022-10-02T04:44:56.411Z,96521.88
2022-10-02T04:48:02.534Z,96516.91
2022-10-02T04:50:39.031Z,96523.97
2022-10-02T04:53:42.842Z,96525.69
2022-10-02T04:56:15.742Z,96523.38
2022-10-02T04:58:54.618Z,96516.72
2022-10-02T05:01:42.750Z,96525.50
2022-10-02T05:04:27.667Z,96527.28
2022-10-02T05:07:31.285Z,96517.75
2022-10-02T05:09:58.523Z,96517.06
2022-10-02T05:12:43.666Z,96514.47
2022-10-02T05:15:10.247Z,96508.09
2022-10-02T05:17:39.660Z,96515.56
2022-10-02T05:20:24.756Z,96518.38
2022-10-02T05:23:11.710Z,96525.63
2022-10-02T05:26:02.639Z,96521.41
2022-10-02T05:28:55.528Z,96512.19
2022-10-02T05:31:33.374Z,96519.28
2022-10-02T05:34:13.443Z,96502.94
2022-10-02T05:37:14.196Z,96502.84
2022-10-02T05:39:53.132Z,96507.72
2022-10-02T05:42:32.946Z,96505.38
2022-10-02T05:45:21.687Z,96508.31
2022-10-02T05:47:53.071Z,96497.09
2022-10-02T05:50:24.092Z,96504.91
2022-10-02T05:52:55.271Z,96506.00
2022-10-02T05:55:27.993Z,96509.91
2022-10-02T05:58:07.201Z,96510.25
2022-10-02T06:00:47.240Z,96503.72
2022-10-02T06:03:26.087Z,96504.53
2022-10-02T06:06:05.415Z,96512.31
2022-10-02T06:08:42.285Z,96514.72
2022-10-02T06:11:16.683Z,96524.69
2022-10-02T06:13:50.731Z,96517.69
2022-10-02T06:16:23.407Z,96519.00
2022-10-02T06:18:55.882Z,96525.69
2022-10-02T06:21:33.087Z,96536.47
2022-10-02T06:24:04.930Z,96533.19
2022-10-02T06:27:01.025Z,96542.66
2022-10-02T06:29:49.679Z,96544.66
2022-10-02T06:32:30.280Z,96535.88
2022-10-02T06:34:56.892Z,96540.88
2022-10-02T06:37:49.239Z,96539.66
2022-10-02T06:40:33.730Z,96536.97
2022-10-02T06:43:18.178Z,96536.59
2022-10-02T06:45:58.889Z,96534.66
2022-10-02T06:48:55.337Z,96548.19
2022-10-02T06:51:30.885Z,96543.19
2022-10-02T06:54:53.516Z,96546.63
2022-10-02T06:57:40.642Z,96540.94
2022-10-02T07:00:12.369Z,96554.59
2022-10-02T07:02:49.238Z,96559.22
2022-10-02T07:05:27.020Z,96546.06
2022-10-02T07:08:25.179Z,96551.09
2022-10-02T07:10:51.712Z,96552.59
2022-10-02T07:13:30.270Z,96552.97
2022-10-02T07:16:30.019Z,96560.19
2022-10-02T07:19:05.419Z,96561.34
2022-10-02T07:21:39.572Z,96568.63
2022-10-02T07:24:25.818Z,96571.22
2022-10-02T07:26:58.446Z,96570.28
2022-10-02T07:29:46.907Z,96577.00
2022-10-02T07:32:36.124Z,96572.59
2022-10-02T07:35:44.531Z,96583.16
2022-10-02T07:38:43.178Z,96582.53
2022-10-02T07:41:31.298Z,96573.72
2022-10-02T07:44:33.528Z,96599.38
2022-10-02T07:47:15.348Z,96604.41
2022-10-02T07:49:47.939Z,96602.22
2022-10-02T07:52:32.625Z,96613.91
2022-10-02T07:55:17.723Z,96618.28
2022-10-02T07:57:53.443Z,96621.44
2022-10-02T08:00:24.108Z,96638.50
2022-10-02T08:02:57.980Z,96636.41
2022-10-02T08:05:29.400Z,96633.56
2022-10-02T08:08:02.499Z,96634.50
2022-10-02T08:10:36.078Z,96634.44
2022-10-02T08:13:14.811Z,96639.59
2022-10-02T08:15:44.476Z,96646.44
2022-10-02T08:18:33.715Z,96657.69
2022-10-02T08:21:03.634Z,96649.63
2022-10-02T08:23:57.006Z,96650.00
2022-10-02T08:26:35.578Z,96654.06
2022-10-02T08:29:18.919Z,96651.47
2022-10-02T08:31:46.399Z,96654.91
2022-10-02T08:34:18.343Z,96664.03
2022-10-02T08:36:48.168Z,96647.25
2022-10-02T08:39:29.743Z,96651.84
2022-10-02T08:42:24.971Z,96642.47
2022-10-02T08:45:14.907Z,96660.09
2022-10-02T08:48:22.672Z,96648.59
2022-10-02T08:51:22.873Z,96645.88
2022-10-02T08:54:26.962Z,96640.88
2022-10-02T08:57:30.651Z,96644.28
2022-10-02T09:00:04.051Z,96642.34
2022-10-02T09:03:04.279Z,96635.78
2022-10-02T09:06:08.340Z,96635.03
2022-10-02T09:08:57.352Z,96628.56
2022-10-02T09:11:46.609Z,96615.38
2022-10-02T09:14:33.847Z,96619.41
2022-10-02T09:17:33.688Z,96616.16
2022-10-02T09:20:19.357Z,96614.34
2022-10-02T09:23:13.463Z,96603.09
2022-10-02T09:25:53.907Z,96604.06
2022-10-02T09:28:23.403Z,96597.41
2022-10-02T09:31:22.810Z,96589.72
2022-10-02T09:34:14.599Z,96587.00
2022-10-02T09:37:10.933Z,96581.44
2022-10-02T09:40:08.889Z,96567.66
2022-10-02T09:43:09.186Z,96568.00
2022-10-02T09:46:26.951Z,96569.03
2022-10-02T09:49:09.146Z,96569.13
2022-10-02T09:51:50.903Z,96569.06
2022-10-02T09:54:52.233Z,96570.38
2022-10-02T09:57:49.854Z,96565.72
2022-10-02T10:00:51.384Z,96562.28
2022-10-02T10:03:36.365Z,96548.09
2022-10-02T10:06:24.126Z,96539.78
2022-10-02T10:09:26.503Z,96532.59
2022-10-02T10:12:17.451Z,96534.81
2022-10-02T10:15:10.587Z,96525.25
2022-10-02T10:18:06.110Z,96521.78
2022-10-02T10:21:08.122Z,96525.06
2022-10-02T10:24:06.554Z,96521.03
2022-10-02T10:26:45.279Z,96516.06
2022-10-02T10:29:39.972Z,96500.91
2022-10-02T10:32:38.713Z,96488.34
2022-10-02T10:35:20.788Z,96494.72
2022-10-02T10:38:14.977Z,96504.53
2022-10-02T10:41:00.699Z,96506.19
2022-10-02T10:43:42.575Z,96497.41
2022-10-02T10:46:29.476Z,96491.34
2022-10-02T10:49:21.705Z,96487.56
2022-10-02T10:52:04.060Z,96481.75
2022-10-02T10:55:04.866Z,96474.03
2022-10-02T10:57:41.640Z,96483.00
2022-10-02T11:00:41.222Z,96481.97
2022-10-02T11:03:32.023Z,96473.00
2022-10-02T11:06:35.560Z,96475.69
2022-10-02T11:09:20.420Z,96469.53
2022-10-02T11:11:56.103Z,96465.31
2022-10-02T11:14:54.459Z,96460.84
2022-10-02T11:17:31.546Z,96461.44
2022-10-02T11:19:58.064Z,96456.94
2022-10-02T11:22:42.941Z,96455.06
2022-10-02T11:25:25.794Z,96458.53
2022-10-02T11:27:57.607Z,96452.56
2022-10-02T11:30:34.680Z,96461.78
2022-10-02T11:33:21.505Z,96452.81
2022-10-02T11:36:12.832Z,96448.59
2022-10-02T11:39:14.111Z,96457.72
2022-10-02T11:42:06.647Z,96439.59
2022-10-02T11:44:43.495Z,96437.00
2022-10-02T11:47:17.524Z,96428.44
2022-10-02T11:50:02.128Z,96430.44
2022-10-02T11:52:50.430Z,96436.41
2022-10-02T11:55:43.828Z,96424.22
2022-10-02T11:58:34.083Z,96420.47
2022-10-02T12:01:21.175Z,96407.50
2022-10-02T12:04:06.588Z,96408.88
2022-10-02T12:06:36.134Z,96393.47
2022-10-02T12:09:19.041Z,96383.19
2022-10-02T12:12:04.115Z,96380.22
2022-10-02T12:14:42.800Z,96380.81
2022-10-02T12:17:46.611Z,96372.69
2022-10-02T12:20:40.189Z,96362.63
2022-10-02T12:23:59.782Z,96354.72
2022-10-02T12:27:02.539Z,96351.50
2022-10-02T12:29:50.047Z,96339.03
2022-10-02T12:32:23.435Z,96336.72
2022-10-02T12:35:01.707Z,96325.44
2022-10-02T12:38:12.971Z,96312.88
2022-10-02T12:40:57.636Z,96298.97
2022-10-02T12:44:06.105Z,96278.72
2022-10-02T12:46:59.726Z,96263.50
2022-10-02T12:49:35.306Z,96259.13
2022-10-02T12:52:24.083Z,96252.44
2022-10-02T12:55:08.933Z,96248.28
2022-10-02T12:57:55.435Z,96238.47
2022-10-02T13:00:41.440Z,96222.69
2022-10-02T13:03:46.982Z,96209.69
2022-10-02T13:06:22.612Z,96211.84
2022-10-02T13:09:07.827Z,96215.31
2022-10-02T13:12:01.737Z,96216.22
2022-10-02T13:14:48.400Z,96208.84
2022-10-02T13:17:26.866Z,96205.00
2022-10-02T13:19:53.808Z,96191.25
2022-10-02T13:22:40.945Z,96191.06
2022-10-02T13:25:32.056Z,96190.50
2022-10-02T13:28:32.544Z,96169.13
2022-10-02T13:31:22.442Z,96167.00
2022-10-02T13:34:11.913Z,96158.63
2022-10-02T13:36:38.448Z,96143.97
2022-10-02T13:39:26.979Z,96159.81
2022-10-02T13:42:10.868Z,96147.88
2022-10-02T13:44:52.497Z,96135.34
2022-10-02T13:47:40.510Z,96121.91
2022-10-02T13:50:26.681Z,96121.34
2022-10-02T13:53:18.837Z,96121.31
2022-10-02T13:55:51.736Z,96098.59
2022-10-02T13:58:41.770Z,96095.16
2022-10-02T14:01:11.162Z,96142.00
2022-10-02T14:03:43.848Z,96148.13
2022-10-02T14:06:27.171Z,96147.41
2022-10-02T14:08:57.345Z,96178.72
2022-10-02T14:12:02.097Z,96215.38
2022-10-02T14:15:06.322Z,96221.03
2022-10-02T14:17:55.557Z,96218.97
2022-10-02T14:20:28.148Z,96203.44
2022-10-02T14:23:13.062Z,96252.75
2022-10-02T14:25:39.579Z,96280.28
2022-10-02T14:28:17.082Z,96269.63
2022-10-02T14:31:01.681Z,96280.44
2022-10-02T14:33:49.870Z,96285.88
2022-10-02T14:36:23.417Z,96304.63
2022-10-02T14:39:38.172Z,96339.41
2022-10-02T14:42:43.195Z,96322.59
2022-10-02T14:45:45.286Z,96319.25
2022-10-02T14:48:20.930Z,96336.94
2022-10-02T14:51:01.507Z,96355.03
2022-10-02T14:54:05.556Z,96368.56
2022-10-02T14:56:32.036Z,96363.53
2022-10-02T14:59:10.780Z,96346.56
2022-10-02T15:01:45.242Z,96357.06
2022-10-02T15:04:36.132Z,96366.81
2022-10-02T15:07:15.351Z,96367.06
2022-10-02T15:09:50.942Z,96371.91
2022-10-02T15:12:30.097Z,96385.69
2022-10-02T15:15:09.233Z,96399.00
2022-10-02T15:17:56.793Z,96404.59
2022-10-02T15:20:37.053Z,96387.94
2022-10-02T15:23:12.606Z,96366.19
2022-10-02T15:26:03.599Z,96376.06
2022-10-02T15:28:37.388Z,96389.16
2022-10-02T15:31:32.171Z,96401.75
2022-10-02T15:34:09.729Z,96390.59
2022-10-02T15:36:38.917Z,96380.06
2022-10-02T15:39:17.737Z,96364.06
2022-10-02T15:42:09.290Z,96358.63
2022-10-02T15:45:09.465Z,96375.75
2022-10-02T15:48:01.455Z,96370.78
2022-10-02T15:50:40.127Z,96376.63
2022-10-02T15:53:15.499Z,96382.88
2022-10-02T15:55:45.782Z,96379.00
2022-10-02T15:58:15.075Z,96388.66
2022-10-02T16:01:08.999Z,96383.00
2022-10-02T16:03:51.099Z,96381.94
2022-10-02T16:06:36.644Z,96387.63
2022-10-02T16:09:18.490Z,96399.25
2022-10-02T16:11:51.029Z,96405.22
2022-10-02T16:14:29.706Z,96416.78
2022-10-02T16:17:14.834Z,96421.72
2022-10-02T16:19:41.295Z,96409.97
2022-10-02T16:22:19.502Z,96402.81
2022-10-02T16:25:22.812Z,96397.72
2022-10-02T16:27:52.349Z,96397.38
2022-10-02T16:30:24.234Z,96411.06
2022-10-02T16:33:10.440Z,96402.81
2022-10-02T16:36:10.641Z,96390.59
2022-10-02T16:39:10.821Z,96396.38
2022-10-02T16:41:58.458Z,96400.25
2022-10-02T16:44:52.917Z,96396.41
2022-10-02T16:47:34.473Z,96400.06
2022-10-02T16:50:44.210Z,96404.34
2022-10-02T16:53:20.831Z,96409.22
2022-10-02T16:55:58.146Z,96409.28
2022-10-02T16:58:32.747Z,96419.31
2022-10-02T17:01:24.446Z,96427.38
2022-10-02T17:03:54.534Z,96431.00
2022-10-02T17:06:32.471Z,96437.88
2022-10-02T17:09:05.903Z,96427.53
2022-10-02T17:11:44.383Z,96429.91
2022-10-02T17:14:37.687Z,96438.00
2022-10-02T17:17:37.988Z,96445.19
2022-10-02T17:20:27.440Z,96434.09
2022-10-02T17:23:14.858Z,96416.69
2022-10-02T17:26:08.894Z,96429.63
2022-10-02T17:28:59.054Z,96422.81
2022-10-02T17:31:52.704Z,96412.94
2022-10-02T17:34:22.239Z,96424.00
2022-10-02T17:37:03.948Z,96442.38
2022-10-02T17:39:58.369Z,96453.44
2022-10-02T17:42:24.814Z,96467.00
2022-10-02T17:45:02.541Z,96484.91
2022-10-02T17:47:48.202Z,96479.41
2022-10-02T17:50:42.759Z,96474.44
2022-10-02T17:53:59.485Z,96468.03
2022-10-02T17:56:29.015Z,96479.13
2022-10-02T17:59:24.151Z,96478.81
2022-10-02T18:02:09.555Z,96485.16
2022-10-02T18:04:53.657Z,96479.19
2022-10-02T18:07:44.269Z,96463.63
2022-10-02T18:10:31.152Z,96435.88
2022-10-02T18:13:16.380Z,96455.56
2022-10-02T18:15:48.891Z,96469.00
2022-10-02T18:18:52.573Z,96462.94
2022-10-02T18:21:28.420Z,96475.81
2022-10-02T18:24:09.023Z,96481.78
2022-10-02T18:26:53.894Z,96481.75
2022-10-02T18:29:29.492Z,96478.53
2022-10-02T18:32:08.271Z,96477.72
2022-10-02T18:34:56.222Z,96477.31
2022-10-02T18:37:28.710Z,96478.69
2022-10-02T18:40:18.384Z,96485.06
2022-10-02T18:43:14.453Z,96472.16
2022-10-02T18:45:57.772Z,96465.09
2022-10-02T18:48:24.374Z,96480.09
2022-10-02T18:51:06.542Z,96493.09
2022-10-02T18:53:33.079Z,96493.16
2022-10-02T18:56:07.583Z,96500.31
2022-10-02T18:59:02.384Z,96504.72
2022-10-02T19:01:28.964Z,96504.81
2022-10-02T19:03:58.287Z,96515.22
2022-10-02T19:06:46.473Z,96509.47
2022-10-02T19:09:27.424Z,96521.13
2022-10-02T19:12:13.420Z,96519.81
2022-10-02T19:14:45.815Z,96518.72
2022-10-02T19:17:14.319Z,96524.59
2022-10-02T19:19:42.446Z,96530.13
2022-10-02T19:22:18.709Z,96520.34
2022-10-02T19:24:49.586Z,96514.56
2022-10-02T19:27:37.439Z,96529.00
2022-10-02T19:30:21.696Z,96535.81
2022-10-02T19:32:51.142Z,96530.59
2022-10-02T19:35:23.505Z,96524.22
2022-10-02T19:37:53.563Z,96533.78
2022-10-02T19:40:24.052Z,96529.88
2022-10-02T19:42:56.183Z,96534.78
2022-10-02T19:45:26.677Z,96546.19
2022-10-02T19:48:04.572Z,96548.59
2022-10-02T19:50:41.945Z,96556.19
2022-10-02T19:53:47.921Z,96538.97
2022-10-02T19:56:39.792Z,96539.63
2022-10-02T19:59:19.047Z,96535.56
2022-10-02T20:01:52.125Z,96531.53
2022-10-02T20:04:26.525Z,96527.69
2022-10-02T20:06:59.108Z,96533.63
2022-10-02T20:10:07.283Z,96543.25
2022-10-02T20:12:42.290Z,96557.22
2022-10-02T20:15:18.659Z,96560.78
2022-10-02T20:17:45.237Z,96559.59
2022-10-02T20:20:16.685Z,96551.00
2022-10-02T20:22:54.270Z,96556.19
2022-10-02T20:25:29.224Z,96543.31
2022-10-02T20:28:17.374Z,96542.00
2022-10-02T20:31:01.288Z,96538.22
2022-10-02T20:33:41.821Z,96546.72
2022-10-02T20:36:39.160Z,96537.25
2022-10-02T20:39:11.338Z,96558.13
2022-10-02T20:41:54.779Z,96537.88
2022-10-02T20:44:21.811Z,96549.94
2022-10-02T20:47:24.540Z,96546.22
2022-10-02T20:50:15.818Z,96549.41
2022-10-02T20:53:03.811Z,96551.22
2022-10-02T20:55:48.803Z,96553.44
2022-10-02T20:58:46.243Z,96553.56
2022-10-02T21:01:20.823Z,96554.94
2022-10-02T21:04:19.868Z,96551.38
2022-10-02T21:07:07.884Z,96557.63
2022-10-02T21:09:49.796Z,96558.00
2022-10-02T21:12:25.198Z,96569.22
2022-10-02T21:14:57.782Z,96561.28
2022-10-02T21:17:42.539Z,96565.47
2022-10-02T21:20:53.583Z,96554.31
2022-10-02T21:24:17.494Z,96558.00
2022-10-02T21:27:02.416Z,96567.06
2022-10-02T21:30:05.962Z,96568.97
2022-10-02T21:32:38.423Z,96560.47
2022-10-02T21:35:04.952Z,96566.81
2022-10-02T21:38:12.987Z,96584.25
2022-10-02T21:40:48.429Z,96571.34
2022-10-02T21:43:51.806Z,96569.34
2022-10-02T21:46:27.344Z,96581.78
2022-10-02T21:49:24.125Z,96589.41
2022-10-02T21:52:18.612Z,96601.44
2022-10-02T21:54:54.143Z,96601.19
2022-10-02T21:57:32.872Z,96591.16
2022-10-02T22:00:16.365Z,96598.25
2022-10-02T22:02:42.779Z,96597.75
2022-10-02T22:05:46.847Z,96600.59
2022-10-02T22:08:21.013Z,96614.53
2022-10-02T22:11:13.472Z,96613.56
2022-10-02T22:13:43.738Z,96610.88
2022-10-02T22:16:22.176Z,96620.81
2022-10-02T22:18:58.206Z,96621.63
2022-10-02T22:21:38.543Z,96622.16
2022-10-02T22:24:23.908Z,96625.44
2022-10-02T22:27:30.708Z,96626.03
2022-10-02T22:29:57.810Z,96632.13
2022-10-02T22:33:10.217Z,96630.91
2022-10-02T22:36:04.638Z,96642.91
2022-10-02T22:38:50.783Z,96628.03
2022-10-02T22:41:33.976Z,96630.75
2022-10-02T22:44:03.378Z,96633.00
2022-10-02T22:47:05.893Z,96628.75
2022-10-02T22:50:01.926Z,96639.72
2022-10-02T22:52:37.876Z,96638.03
2022-10-02T22:55:14.278Z,96647.78
2022-10-02T22:57:52.189Z,96648.88
2022-10-02T23:00:24.439Z,96657.72
2022-10-02T23:03:06.032Z,96650.56
2022-10-02T23:05:57.041Z,96652.28
2022-10-02T23:08:33.145Z,96652.94
2022-10-02T23:11:08.344Z,96660.88
2022-10-02T23:13:45.320Z,96658.88
2022-10-02T23:16:33.995Z,96664.28
2022-10-02T23:19:03.436Z,96667.13
2022-10-02T23:21:38.295Z,96669.69
2022-10-02T23:24:17.346Z,96672.16
2022-10-02T23:26:49.243Z,96675.47
2022-10-02T23:29:18.874Z,96672.69
2022-10-02T23:31:58.995Z,96678.50
2022-10-02T23:34:36.933Z,96680.78
2022-10-02T23:37:35.347Z,96685.38
2022-10-02T23:40:45.357Z,96682.25
2022-10-02T23:43:20.785Z,96682.44
2022-10-02T23:45:57.940Z,96688.13
2022-10-02T23:48:25.460Z,96686.53
2022-10-02T23:51:08.642Z,96689.41
2022-10-02T23:53:56.814Z,96689.03
2022-10-02T23:56:47.746Z,96680.66
2022-10-02T23:59:41.949Z,96682.06
